createdAt,value
2023-04-09T00:00:52.286Z,183.23
2023-04-09T00:01:55.496Z,159.30
2023-04-09T00:03:10.106Z,117.88
2023-04-09T00:04:18.431Z,123.88
2023-04-09T00:05:21.932Z,127.10
2023-04-09T00:06:31.629Z,130.55
2023-04-09T00:07:34.616Z,102.90
2023-04-09T00:08:40.934Z,128.55
2023-04-09T00:09:43.816Z,111.72
2023-04-09T00:10:49.235Z,182.68
2023-04-09T00:11:58.427Z,148.77
2023-04-09T00:13:03.893Z,128.48
2023-04-09T00:14:09.902Z,137.25
2023-04-09T00:15:24.009Z,141.23
2023-04-09T00:16:33.626Z,113.13
2023-04-09T00:17:37.107Z,147.00
2023-04-09T00:18:43.205Z,123.30
2023-04-09T00:19:46.158Z,129.57
2023-04-09T00:20:51.987Z,254.90
2023-04-09T00:21:57.874Z,119.85
2023-04-09T00:23:06.549Z,160.45
2023-04-09T00:24:09.523Z,122.13
2023-04-09T00:25:15.490Z,126.97
2023-04-09T00:26:18.115Z,133.60
2023-04-09T00:27:23.261Z,148.18
2023-04-09T00:28:26.277Z,112.05
2023-04-09T00:29:32.248Z,137.60
2023-04-09T00:30:35.350Z,140.82
2023-04-09T00:31:41.230Z,127.45
2023-04-09T00:32:44.601Z,136.45
2023-04-09T00:33:50.456Z,119.00
2023-04-09T00:34:53.702Z,156.82
2023-04-09T00:36:02.090Z,164.45
2023-04-09T00:37:07.715Z,167.77
2023-04-09T00:38:13.643Z,122.47
2023-04-09T00:39:19.773Z,122.88
2023-04-09T00:40:32.886Z,136.05
2023-04-09T00:41:36.307Z,129.40
2023-04-09T00:42:42.226Z,119.65
2023-04-09T00:43:48.075Z,137.73
2023-04-09T00:44:54.374Z,131.55
2023-04-09T00:46:04.082Z,291.17
2023-04-09T00:47:10.206Z,165.55
2023-04-09T00:48:16.769Z,119.97
2023-04-09T00:49:20.244Z,126.93
2023-04-09T00:50:26.047Z,149.93
2023-04-09T00:51:29.665Z,139.48
2023-04-09T00:52:37.781Z,163.05
2023-04-09T00:53:41.159Z,227.38
2023-04-09T00:54:47.597Z,112.75
2023-04-09T00:55:58.968Z,122.95
2023-04-09T00:57:07.046Z,190.52
2023-04-09T00:58:19.357Z,123.10
2023-04-09T00:59:22.278Z,160.00
2023-04-09T01:00:31.491Z,131.18
2023-04-09T01:01:34.251Z,125.13
2023-04-09T01:02:39.742Z,126.55
2023-04-09T01:03:43.369Z,133.93
2023-04-09T01:04:52.516Z,109.85
2023-04-09T01:06:03.193Z,138.63
2023-04-09T01:07:15.058Z,130.63
2023-04-09T01:08:32.638Z,109.63
2023-04-09T01:09:44.467Z,128.77
2023-04-09T01:10:53.356Z,124.97
2023-04-09T01:12:12.937Z,141.73
2023-04-09T01:13:20.796Z,126.55
2023-04-09T01:14:31.441Z,120.72
2023-04-09T01:15:38.491Z,115.60
2023-04-09T01:16:48.221Z,152.20
2023-04-09T01:17:57.237Z,120.10
2023-04-09T01:19:06.327Z,129.93
2023-04-09T01:20:18.778Z,120.93
2023-04-09T01:21:29.889Z,113.60
2023-04-09T01:22:45.374Z,138.13
2023-04-09T01:24:04.314Z,126.60
2023-04-09T01:25:19.363Z,129.68
2023-04-09T01:26:36.018Z,121.00
2023-04-09T01:28:01.329Z,197.98
2023-04-09T01:29:11.120Z,185.27
2023-04-09T01:30:19.578Z,132.75
2023-04-09T01:31:29.176Z,117.85
2023-04-09T01:32:36.962Z,117.30
2023-04-09T01:33:40.868Z,124.00
2023-04-09T01:34:52.416Z,122.93
2023-04-09T01:35:55.787Z,196.52
2023-04-09T01:37:04.886Z,202.45
2023-04-09T01:38:14.596Z,113.82
2023-04-09T01:39:23.677Z,126.00
2023-04-09T01:40:28.024Z,135.73
2023-04-09T01:41:36.187Z,142.23
2023-04-09T01:42:39.933Z,143.02
2023-04-09T01:43:47.270Z,130.63
2023-04-09T01:44:54.214Z,132.68
2023-04-09T01:46:00.512Z,150.57
2023-04-09T01:47:04.440Z,127.40
2023-04-09T01:48:10.557Z,123.38
2023-04-09T01:49:17.097Z,109.03
2023-04-09T01:50:23.207Z,116.40
2023-04-09T01:51:37.776Z,155.93
2023-04-09T01:52:43.567Z,135.85
2023-04-09T01:53:47.100Z,135.00
2023-04-09T01:54:55.804Z,130.52
2023-04-09T01:56:00.207Z,150.88
2023-04-09T01:57:07.112Z,130.10
2023-04-09T01:58:10.348Z,110.03
2023-04-09T01:59:19.179Z,118.20
2023-04-09T02:00:28.170Z,135.18
2023-04-09T02:01:42.473Z,121.55
2023-04-09T02:02:59.514Z,105.90
2023-04-09T02:04:08.472Z,124.47
2023-04-09T02:05:17.594Z,140.85
2023-04-09T02:06:30.370Z,119.72
2023-04-09T02:07:41.381Z,151.02
2023-04-09T02:08:53.447Z,124.68
2023-04-09T02:09:57.728Z,136.25
2023-04-09T02:11:07.877Z,165.02
2023-04-09T02:12:15.588Z,120.80
2023-04-09T02:13:24.488Z,122.03
2023-04-09T02:14:36.217Z,125.13
2023-04-09T02:15:46.811Z,112.10
2023-04-09T02:16:49.869Z,109.22
2023-04-09T02:17:56.301Z,103.35
2023-04-09T02:19:02.108Z,107.82
2023-04-09T02:20:08.746Z,140.35
2023-04-09T02:21:14.015Z,107.78
2023-04-09T02:22:23.228Z,112.93
2023-04-09T02:23:29.769Z,110.85
2023-04-09T02:24:36.709Z,129.43
2023-04-09T02:25:39.754Z,119.70
2023-04-09T02:26:48.123Z,117.82
2023-04-09T02:27:53.872Z,134.57
2023-04-09T02:28:59.941Z,130.20
2023-04-09T02:30:02.075Z,173.38
2023-04-09T02:31:09.668Z,184.93
2023-04-09T02:32:11.999Z,156.48
2023-04-09T02:33:16.879Z,158.00
2023-04-09T02:34:19.115Z,132.90
2023-04-09T02:35:23.987Z,156.43
2023-04-09T02:36:26.707Z,155.90
2023-04-09T02:37:31.579Z,133.98
2023-04-09T02:38:33.700Z,143.68
2023-04-09T02:39:38.560Z,164.88
2023-04-09T02:40:41.504Z,147.88
2023-04-09T02:41:46.520Z,141.68
2023-04-09T02:42:48.680Z,160.80
2023-04-09T02:43:53.438Z,194.85
2023-04-09T02:44:56.006Z,172.48
2023-04-09T02:46:00.779Z,140.27
2023-04-09T02:47:05.611Z,211.50
2023-04-09T02:48:10.593Z,158.82
2023-04-09T02:49:12.801Z,122.88
2023-04-09T02:50:17.646Z,144.30
2023-04-09T02:51:20.568Z,132.57
2023-04-09T02:52:26.236Z,140.60
2023-04-09T02:53:28.474Z,138.63
2023-04-09T02:54:33.284Z,127.05
2023-04-09T02:55:35.642Z,156.98
2023-04-09T02:56:40.539Z,128.27
2023-04-09T02:57:42.734Z,133.10
2023-04-09T02:58:49.792Z,129.88
2023-04-09T02:59:52.120Z,138.00
2023-04-09T03:00:56.945Z,147.98
2023-04-09T03:01:59.407Z,138.05
2023-04-09T03:03:07.362Z,160.63
2023-04-09T03:04:10.205Z,152.88
2023-04-09T03:05:15.504Z,121.78
2023-04-09T03:06:18.788Z,135.73
2023-04-09T03:07:23.912Z,182.65
2023-04-09T03:08:26.125Z,121.25
2023-04-09T03:09:31.376Z,124.10
2023-04-09T03:10:33.588Z,156.55
2023-04-09T03:11:38.471Z,163.45
2023-04-09T03:12:41.078Z,140.02
2023-04-09T03:13:45.960Z,134.73
2023-04-09T03:14:48.388Z,135.52
2023-04-09T03:15:55.043Z,134.25
2023-04-09T03:16:57.216Z,193.18
2023-04-09T03:18:02.124Z,157.75
2023-04-09T03:19:07.027Z,151.40
2023-04-09T03:20:12.496Z,150.40
2023-04-09T03:21:15.143Z,135.02
2023-04-09T03:22:20.103Z,131.07
2023-04-09T03:23:22.351Z,128.25
2023-04-09T03:24:27.522Z,156.20
2023-04-09T03:25:29.766Z,136.50
2023-04-09T03:26:36.696Z,134.85
2023-04-09T03:27:38.958Z,189.45
2023-04-09T03:28:43.750Z,161.27
2023-04-09T03:29:46.140Z,131.88
2023-04-09T03:30:50.983Z,138.25
2023-04-09T03:31:53.419Z,176.18
2023-04-09T03:32:59.665Z,178.05
2023-04-09T03:34:01.813Z,145.68
2023-04-09T03:35:09.833Z,151.75
2023-04-09T03:36:14.687Z,147.32
2023-04-09T03:37:16.848Z,149.25
2023-04-09T03:38:22.274Z,134.23
2023-04-09T03:39:24.537Z,146.63
2023-04-09T03:40:29.352Z,145.55
2023-04-09T03:41:34.186Z,139.20
2023-04-09T03:42:37.653Z,171.45
2023-04-09T03:43:42.726Z,159.13
2023-04-09T03:44:44.940Z,145.45
2023-04-09T03:45:49.878Z,153.80
2023-04-09T03:46:52.126Z,153.23
2023-04-09T03:47:58.100Z,156.18
2023-04-09T03:49:00.852Z,156.32
2023-04-09T03:50:08.704Z,149.43
2023-04-09T03:51:12.723Z,140.48
2023-04-09T03:52:17.585Z,145.95
2023-04-09T03:53:20.086Z,140.25
2023-04-09T03:54:24.966Z,127.75
2023-04-09T03:55:27.427Z,139.50
2023-04-09T03:56:32.222Z,133.02
2023-04-09T03:57:34.449Z,130.10
2023-04-09T03:58:40.152Z,137.35
2023-04-09T03:59:42.481Z,137.10
2023-04-09T04:00:47.240Z,127.40
2023-04-09T04:01:49.805Z,134.43
2023-04-09T04:02:55.002Z,112.68
2023-04-09T04:03:57.654Z,142.10
2023-04-09T04:05:02.606Z,139.95
2023-04-09T04:06:07.940Z,112.43
2023-04-09T04:07:12.982Z,114.40
2023-04-09T04:08:15.305Z,120.43
2023-04-09T04:09:20.052Z,127.55
2023-04-09T04:10:22.286Z,130.20
2023-04-09T04:11:27.306Z,133.73
2023-04-09T04:12:31.430Z,133.05
2023-04-09T04:13:36.332Z,131.98
2023-04-09T04:14:38.580Z,118.10
2023-04-09T04:15:44.255Z,140.15
2023-04-09T04:16:46.529Z,145.00
2023-04-09T04:17:51.427Z,140.20
2023-04-09T04:18:54.064Z,138.18
2023-04-09T04:19:59.325Z,145.90
2023-04-09T04:21:01.622Z,144.18
2023-04-09T04:22:09.165Z,158.70
2023-04-09T04:23:11.520Z,154.32
2023-04-09T04:24:17.153Z,144.02
2023-04-09T04:25:19.759Z,124.55
2023-04-09T04:26:25.071Z,129.32
2023-04-09T04:27:31.226Z,123.90
2023-04-09T04:28:44.032Z,123.07
2023-04-09T04:29:46.455Z,138.20
2023-04-09T04:30:52.031Z,186.00
2023-04-09T04:31:55.684Z,131.40
2023-04-09T04:33:01.341Z,147.27
2023-04-09T04:34:06.883Z,232.55
2023-04-09T04:35:16.058Z,154.05
2023-04-09T04:36:22.614Z,114.53
2023-04-09T04:37:33.987Z,148.18
2023-04-09T04:38:40.347Z,122.05
2023-04-09T04:39:49.725Z,125.43
2023-04-09T04:40:53.213Z,126.50
2023-04-09T04:42:02.069Z,157.80
2023-04-09T04:43:05.449Z,143.60
2023-04-09T04:44:11.817Z,157.20
2023-04-09T04:45:18.893Z,124.72
2023-04-09T04:46:42.005Z,134.95
2023-04-09T04:47:45.236Z,140.40
2023-04-09T04:48:55.249Z,123.45
2023-04-09T04:49:59.016Z,164.40
2023-04-09T04:51:07.627Z,139.25
2023-04-09T04:52:10.081Z,196.77
2023-04-09T04:53:18.080Z,166.20
2023-04-09T04:54:20.306Z,168.88
2023-04-09T04:55:25.502Z,144.02
2023-04-09T04:56:27.932Z,165.90
2023-04-09T04:57:32.856Z,134.00
2023-04-09T04:58:35.060Z,144.55
2023-04-09T04:59:40.753Z,160.48
2023-04-09T05:00:43.007Z,147.68
2023-04-09T05:01:48.068Z,139.40
2023-04-09T05:02:50.576Z,132.40
2023-04-09T05:03:55.968Z,151.65
2023-04-09T05:04:58.595Z,195.73
2023-04-09T05:06:03.532Z,171.88
2023-04-09T05:07:05.981Z,170.35
2023-04-09T05:08:10.934Z,211.40
2023-04-09T05:09:15.908Z,141.75
2023-04-09T05:10:21.268Z,143.40
2023-04-09T05:11:23.727Z,212.02
2023-04-09T05:12:28.701Z,156.90
2023-04-09T05:13:30.922Z,146.88
2023-04-09T05:14:35.798Z,154.63
2023-04-09T05:15:41.596Z,144.77
2023-04-09T05:16:46.603Z,153.68
2023-04-09T05:17:48.930Z,190.00
2023-04-09T05:18:54.167Z,168.27
2023-04-09T05:19:58.180Z,185.95
2023-04-09T05:21:03.012Z,167.25
2023-04-09T05:22:05.341Z,197.88
2023-04-09T05:23:12.778Z,200.70
2023-04-09T05:24:20.656Z,170.55
2023-04-09T05:25:22.904Z,162.82
2023-04-09T05:26:27.858Z,157.15
2023-04-09T05:27:30.610Z,160.75
2023-04-09T05:28:36.216Z,167.60
2023-04-09T05:29:38.376Z,159.60
2023-04-09T05:30:43.433Z,197.00
2023-04-09T05:31:48.460Z,152.70
2023-04-09T05:32:50.903Z,155.77
2023-04-09T05:33:56.085Z,213.27
2023-04-09T05:34:58.313Z,221.27
2023-04-09T05:36:03.266Z,203.15
2023-04-09T05:37:05.577Z,176.02
2023-04-09T05:38:10.898Z,186.20
2023-04-09T05:39:13.154Z,174.90
2023-04-09T05:40:20.859Z,171.48
2023-04-09T05:41:23.045Z,170.93
2023-04-09T05:42:28.041Z,168.43
2023-04-09T05:43:30.672Z,170.88
2023-04-09T05:44:35.935Z,192.55
2023-04-09T05:45:38.289Z,184.43
2023-04-09T05:46:43.233Z,179.68
2023-04-09T05:47:45.550Z,168.80
2023-04-09T05:48:52.415Z,254.50
2023-04-09T05:49:55.112Z,175.35
2023-04-09T05:51:01.038Z,203.43
2023-04-09T05:52:03.594Z,231.80
2023-04-09T05:53:08.750Z,239.18
2023-04-09T05:54:11.071Z,190.88
2023-04-09T05:55:16.172Z,172.63
2023-04-09T05:56:23.006Z,183.63
2023-04-09T05:57:30.448Z,178.15
2023-04-09T05:58:32.793Z,178.18
2023-04-09T05:59:37.680Z,153.65
2023-04-09T06:00:42.598Z,153.85
2023-04-09T06:01:47.566Z,154.43
2023-04-09T06:02:49.885Z,156.23
2023-04-09T06:03:57.743Z,147.75
2023-04-09T06:05:00.907Z,212.98
2023-04-09T06:06:07.870Z,197.95
2023-04-09T06:07:10.185Z,194.73
2023-04-09T06:08:15.156Z,154.05
2023-04-09T06:09:17.405Z,150.55
2023-04-09T06:10:22.734Z,151.90
2023-04-09T06:11:27.968Z,186.27
2023-04-09T06:12:32.960Z,150.77
2023-04-09T06:13:35.206Z,159.25
2023-04-09T06:14:40.278Z,194.45
2023-04-09T06:15:42.648Z,149.93
2023-04-09T06:16:47.629Z,156.88
2023-04-09T06:17:49.903Z,155.70
2023-04-09T06:18:57.178Z,148.45
2023-04-09T06:19:59.734Z,198.63
2023-04-09T06:21:05.566Z,179.32
2023-04-09T06:22:10.632Z,169.95
2023-04-09T06:23:15.543Z,151.20
2023-04-09T06:24:17.832Z,150.90
2023-04-09T06:25:23.059Z,154.25
2023-04-09T06:26:28.006Z,157.40
2023-04-09T06:27:32.959Z,152.10
2023-04-09T06:28:35.209Z,151.20
2023-04-09T06:29:40.144Z,131.70
2023-04-09T06:30:42.461Z,173.65
2023-04-09T06:31:47.729Z,146.45
2023-04-09T06:32:55.274Z,138.63
2023-04-09T06:33:57.766Z,171.35
2023-04-09T06:35:02.458Z,161.02
2023-04-09T06:36:08.300Z,206.13
2023-04-09T06:37:13.483Z,225.68
2023-04-09T06:38:15.937Z,146.77
2023-04-09T06:39:20.956Z,149.25
2023-04-09T06:40:23.550Z,156.27
2023-04-09T06:41:31.108Z,145.38
2023-04-09T06:42:33.486Z,140.85
2023-04-09T06:43:39.158Z,183.20
2023-04-09T06:44:44.122Z,139.70
2023-04-09T06:45:46.543Z,150.55
2023-04-09T06:46:52.082Z,148.45
2023-04-09T06:47:57.236Z,143.60
2023-04-09T06:48:59.676Z,197.82
2023-04-09T06:50:04.815Z,199.88
2023-04-09T06:51:10.744Z,198.98
2023-04-09T06:52:13.118Z,168.32
2023-04-09T06:53:18.550Z,159.05
2023-04-09T06:54:21.333Z,166.75
2023-04-09T06:55:27.400Z,151.25
2023-04-09T06:56:35.121Z,139.23
2023-04-09T06:57:38.740Z,138.65
2023-04-09T06:58:44.050Z,144.93
2023-04-09T06:59:46.581Z,138.85
2023-04-09T07:00:51.880Z,142.00
2023-04-09T07:01:54.728Z,182.32
2023-04-09T07:02:59.943Z,156.75
2023-04-09T07:04:05.258Z,177.10
2023-04-09T07:05:08.145Z,188.70
2023-04-09T07:06:13.549Z,197.88
2023-04-09T07:07:16.057Z,180.23
2023-04-09T07:08:23.293Z,146.35
2023-04-09T07:09:25.742Z,155.45
2023-04-09T07:10:30.790Z,172.95
2023-04-09T07:11:38.486Z,156.32
2023-04-09T07:12:40.857Z,149.20
2023-04-09T07:13:45.960Z,134.30
2023-04-09T07:14:48.284Z,148.18
2023-04-09T07:15:53.325Z,160.73
2023-04-09T07:16:58.281Z,138.15
2023-04-09T07:18:03.320Z,195.77
2023-04-09T07:19:07.717Z,191.32
2023-04-09T07:20:14.065Z,177.18
2023-04-09T07:21:19.492Z,140.13
2023-04-09T07:22:22.308Z,148.30
2023-04-09T07:23:27.467Z,147.35
2023-04-09T07:24:32.838Z,169.65
2023-04-09T07:25:35.068Z,164.82
2023-04-09T07:26:42.965Z,155.60
2023-04-09T07:27:48.422Z,163.23
2023-04-09T07:28:53.561Z,157.65
2023-04-09T07:29:56.584Z,146.05
2023-04-09T07:31:02.925Z,174.27
2023-04-09T07:32:05.736Z,175.93
2023-04-09T07:33:10.898Z,155.93
2023-04-09T07:34:15.954Z,154.20
2023-04-09T07:35:19.026Z,109.45
2023-04-09T07:36:24.280Z,93.03
2023-04-09T07:37:29.652Z,74.07
2023-04-09T07:38:35.155Z,109.50
2023-04-09T07:39:37.634Z,102.88
2023-04-09T07:40:42.781Z,119.82
2023-04-09T07:41:48.900Z,82.97
2023-04-09T07:42:54.319Z,94.93
2023-04-09T07:43:56.957Z,147.57
2023-04-09T07:45:03.680Z,129.98
2023-04-09T07:46:08.808Z,163.85
2023-04-09T07:47:13.858Z,181.38
2023-04-09T07:48:18.978Z,92.78
2023-04-09T07:49:24.053Z,107.65
2023-04-09T07:50:29.224Z,117.05
2023-04-09T07:51:31.767Z,124.28
2023-04-09T07:52:36.673Z,84.28
2023-04-09T07:53:38.925Z,146.63
2023-04-09T07:54:43.866Z,110.15
2023-04-09T07:55:48.867Z,94.07
2023-04-09T07:56:53.978Z,145.75
2023-04-09T07:57:59.268Z,161.52
2023-04-09T07:59:01.503Z,162.88
2023-04-09T08:00:07.177Z,210.10
2023-04-09T08:01:12.138Z,153.40
2023-04-09T08:02:15.518Z,139.10
2023-04-09T08:03:20.791Z,138.38
2023-04-09T08:04:23.476Z,105.57
2023-04-09T08:05:29.224Z,134.23
2023-04-09T08:06:34.402Z,108.88
2023-04-09T08:07:39.600Z,89.00
2023-04-09T08:08:44.479Z,99.47
2023-04-09T08:09:51.560Z,110.15
2023-04-09T08:10:57.381Z,106.85
2023-04-09T08:12:02.584Z,132.55
2023-04-09T08:13:08.733Z,178.20
2023-04-09T08:14:13.323Z,149.88
2023-04-09T08:15:18.318Z,109.10
2023-04-09T08:16:21.632Z,104.57
2023-04-09T08:17:27.942Z,114.03
2023-04-09T08:18:30.399Z,87.13
2023-04-09T08:19:36.463Z,109.00
2023-04-09T08:20:45.439Z,99.72
2023-04-09T08:21:51.666Z,139.95
2023-04-09T08:22:56.987Z,153.23
2023-04-09T08:24:01.688Z,134.27
2023-04-09T08:25:07.280Z,151.13
2023-04-09T08:26:12.663Z,190.52
2023-04-09T08:27:20.426Z,135.20
2023-04-09T08:28:25.380Z,103.70
2023-04-09T08:29:30.684Z,105.75
2023-04-09T08:30:34.566Z,103.78
2023-04-09T08:31:39.789Z,94.95
2023-04-09T08:32:44.961Z,99.10
2023-04-09T08:33:47.389Z,111.88
2023-04-09T08:34:52.297Z,114.90
2023-04-09T08:35:54.631Z,155.65
2023-04-09T08:37:01.557Z,198.15
2023-04-09T08:38:09.953Z,302.27
2023-04-09T08:43:56.219Z,127.60
2023-04-09T08:45:15.853Z,127.35
2023-04-09T08:46:28.712Z,129.70
2023-04-09T08:47:37.105Z,124.90
2023-04-09T08:48:50.136Z,75.75
2023-04-09T08:51:39.862Z,223.90
2023-04-09T08:53:12.329Z,274.05
2023-04-09T08:55:52.680Z,166.77
2023-04-09T08:56:58.490Z,148.73
2023-04-09T08:58:09.967Z,119.22
2023-04-09T08:59:44.561Z,187.77
2023-04-09T09:05:32.543Z,191.07
2023-04-09T09:07:08.913Z,236.57
2023-04-09T09:10:04.848Z,246.98
2023-04-09T09:11:30.816Z,227.70
2023-04-09T09:12:47.587Z,197.00
2023-04-09T09:14:07.731Z,230.93
2023-04-09T09:15:33.737Z,234.48
2023-04-09T09:18:59.433Z,146.82
2023-04-09T09:20:50.972Z,187.82
2023-04-09T09:30:43.516Z,199.52
2023-04-09T09:32:39.094Z,186.73
2023-04-09T09:35:50.829Z,233.02
2023-04-09T09:39:41.104Z,186.93
2023-04-09T09:41:24.258Z,86.38
2023-04-09T09:49:31.042Z,81.78
2023-04-09T09:53:28.292Z,68.75
2023-04-09T09:55:43.969Z,108.90
2023-04-09T09:57:31.737Z,95.93
2023-04-09T10:02:05.380Z,174.57
2023-04-09T10:10:58.713Z,81.28
2023-04-09T10:13:10.420Z,101.35
2023-04-09T10:21:52.728Z,72.53
2023-04-09T10:23:57.152Z,61.95
2023-04-09T10:30:13.643Z,78.38
2023-04-09T10:32:20.814Z,105.22
2023-04-09T10:34:35.251Z,50.15
2023-04-09T10:40:42.035Z,88.05
2023-04-09T10:56:11.576Z,149.65
2023-04-09T11:02:06.832Z,73.55
2023-04-09T11:21:23.150Z,68.13
2023-04-09T11:25:17.350Z,50.28
2023-04-09T11:27:06.618Z,107.35
2023-04-09T11:29:04.422Z,59.22
2023-04-09T11:30:42.529Z,51.88
2023-04-09T11:31:55.463Z,51.10
2023-04-09T11:34:38.959Z,84.57
2023-04-09T11:36:28.370Z,82.22
2023-04-09T11:38:30.730Z,57.85
2023-04-09T11:46:51.650Z,79.10
2023-04-09T11:48:35.887Z,53.67
2023-04-09T11:52:29.080Z,73.07
2023-04-09T11:58:08.679Z,71.05
2023-04-09T11:59:59.827Z,63.92
2023-04-09T12:01:25.081Z,77.53
2023-04-09T12:05:33.801Z,76.82
2023-04-09T12:18:34.170Z,139.68
2023-04-09T12:25:13.424Z,81.93
2023-04-09T12:31:12.924Z,61.20
2023-04-09T12:35:01.646Z,98.47
2023-04-09T12:36:46.882Z,89.13
2023-04-09T12:42:25.489Z,115.43
2023-04-09T12:44:32.549Z,195.65
2023-04-09T12:46:24.307Z,165.18
2023-04-09T12:48:00.036Z,151.05
2023-04-09T12:49:44.962Z,85.88
2023-04-09T12:54:20.382Z,150.50
2023-04-09T12:55:52.011Z,138.57
2023-04-09T12:57:38.000Z,104.95
2023-04-09T13:08:44.753Z,79.28
2023-04-09T13:10:52.562Z,60.90
2023-04-09T13:13:06.410Z,77.63
2023-04-09T13:14:33.982Z,79.25
2023-04-09T13:16:10.642Z,87.22
2023-04-09T13:17:57.304Z,87.93
2023-04-09T13:21:34.415Z,129.70
2023-04-09T13:23:33.062Z,83.82
2023-04-09T13:24:39.930Z,76.43
2023-04-09T13:26:03.734Z,88.05
2023-04-09T13:31:25.425Z,70.88
2023-04-09T13:38:16.139Z,55.22
2023-04-09T13:41:37.390Z,65.82
2023-04-09T13:43:08.711Z,66.03
2023-04-09T13:49:27.164Z,117.95
2023-04-09T13:53:38.841Z,101.03
2023-04-09T13:55:18.037Z,72.95
2023-04-09T14:04:03.525Z,91.55
2023-04-09T14:05:47.391Z,96.18
2023-04-09T14:11:25.990Z,113.35
2023-04-09T14:14:37.586Z,87.55
2023-04-09T14:21:35.984Z,114.78
2023-04-09T14:25:24.928Z,106.90
2023-04-09T14:30:24.269Z,52.05
2023-04-09T14:36:41.469Z,52.30
2023-04-09T14:38:35.506Z,57.90
2023-04-09T14:42:55.742Z,148.98
2023-04-09T14:52:34.962Z,84.03
2023-04-09T14:54:20.553Z,126.40
2023-04-09T14:55:50.699Z,59.55
2023-04-09T14:57:56.511Z,88.30
2023-04-09T15:01:33.998Z,77.85
2023-04-09T15:03:19.657Z,90.00
2023-04-09T15:06:51.104Z,111.28
2023-04-09T15:10:40.787Z,101.35
2023-04-09T15:12:20.564Z,82.45
2023-04-09T15:13:49.669Z,135.23
2023-04-09T15:17:38.602Z,86.75
2023-04-09T15:24:17.866Z,102.63
2023-04-09T15:25:54.091Z,89.57
2023-04-09T15:27:41.480Z,73.72
2023-04-09T15:29:18.557Z,79.20
2023-04-09T15:40:32.439Z,132.82
2023-04-09T15:44:01.100Z,139.07
2023-04-09T15:45:55.470Z,73.30
2023-04-09T15:47:33.161Z,91.78
2023-04-09T15:49:06.171Z,91.75
2023-04-09T15:50:59.569Z,86.15
2023-04-09T15:52:34.097Z,83.82
2023-04-09T15:54:22.876Z,104.10
2023-04-09T15:55:56.935Z,117.85
2023-04-09T15:57:18.925Z,129.90
2023-04-09T16:11:14.126Z,80.55
2023-04-09T16:12:43.592Z,90.45
2023-04-09T16:14:33.608Z,92.30
2023-04-09T16:16:53.394Z,110.33
2023-04-09T16:19:30.201Z,140.73
2023-04-09T16:20:32.848Z,207.23
2023-04-09T16:21:46.247Z,148.45
2023-04-09T16:22:52.772Z,155.45
2023-04-09T16:23:55.315Z,128.43
2023-04-09T16:25:00.541Z,129.07
2023-04-09T16:26:02.941Z,142.23
2023-04-09T16:27:08.165Z,136.13
2023-04-09T16:28:10.686Z,131.70
2023-04-09T16:29:18.750Z,118.00
2023-04-09T16:30:21.458Z,169.10
2023-04-09T16:31:26.525Z,171.13
2023-04-09T16:32:34.387Z,166.50
2023-04-09T16:33:36.948Z,127.10
2023-04-09T16:34:44.653Z,188.25
2023-04-09T16:35:47.259Z,128.70
2023-04-09T16:36:52.390Z,123.28
2023-04-09T16:37:54.847Z,108.25
2023-04-09T16:39:07.737Z,149.18
2023-04-09T16:40:10.778Z,163.98
2023-04-09T16:41:15.968Z,172.30
2023-04-09T16:42:25.586Z,198.27
2023-04-09T16:43:27.843Z,229.60
2023-04-09T16:44:33.292Z,264.05
2023-04-09T16:45:35.919Z,212.32
2023-04-09T16:46:46.996Z,181.88
2023-04-09T16:47:55.068Z,189.55
2023-04-09T16:49:02.717Z,173.48
2023-04-09T16:50:12.692Z,170.63
2023-04-09T16:51:19.146Z,244.15
2023-04-09T16:52:24.172Z,154.55
2023-04-09T16:53:26.997Z,210.23
2023-04-09T16:54:33.405Z,188.13
2023-04-09T16:55:36.125Z,206.23
2023-04-09T16:56:41.108Z,242.90
2023-04-09T16:57:43.414Z,165.55
2023-04-09T16:58:50.033Z,121.25
2023-04-09T16:59:54.163Z,191.48
2023-04-09T17:01:00.861Z,146.65
2023-04-09T17:02:03.267Z,192.00
2023-04-09T17:03:15.764Z,134.40
2023-04-09T17:04:20.994Z,145.25
2023-04-09T17:05:24.724Z,106.55
2023-04-09T17:06:29.948Z,130.90
2023-04-09T17:07:32.389Z,132.20
2023-04-09T17:08:46.063Z,195.48
2023-04-09T17:09:48.491Z,160.30
2023-04-09T17:11:02.471Z,250.15
2023-04-09T17:12:04.898Z,234.00
2023-04-09T17:13:10.499Z,155.68
2023-04-09T17:14:14.605Z,186.75
2023-04-09T17:15:19.537Z,165.30
2023-04-09T17:16:22.931Z,164.82
2023-04-09T17:17:28.417Z,167.40
2023-04-09T17:18:38.587Z,315.80
2023-04-09T17:19:42.884Z,241.38
2023-04-09T17:20:48.569Z,150.57
2023-04-09T17:21:53.571Z,267.88
2023-04-09T17:22:56.139Z,243.43
2023-04-09T17:24:03.460Z,235.63
2023-04-09T17:25:06.782Z,263.85
2023-04-09T17:26:17.030Z,303.17
2023-04-09T17:27:22.586Z,198.27
2023-04-09T17:28:29.234Z,279.80
2023-04-09T17:29:38.495Z,305.98
2023-04-09T17:30:43.850Z,238.05
2023-04-09T17:31:51.117Z,241.88
2023-04-09T17:33:00.075Z,301.95
2023-04-09T17:34:08.877Z,255.00
2023-04-09T17:35:12.523Z,273.00
2023-04-09T17:36:21.298Z,314.90
2023-04-09T17:37:31.260Z,316.30
2023-04-09T17:38:39.537Z,360.02
2023-04-09T17:39:51.569Z,371.70
2023-04-09T17:41:01.059Z,274.00
2023-04-09T17:42:09.888Z,316.90
2023-04-09T17:43:17.777Z,392.60
2023-04-09T17:44:23.240Z,237.23
2023-04-09T17:45:30.151Z,361.77
2023-04-09T17:46:34.658Z,353.05
2023-04-09T17:47:40.133Z,350.90
2023-04-09T17:48:42.386Z,342.17
2023-04-09T17:49:53.823Z,297.35
2023-04-09T17:50:59.173Z,263.50
2023-04-09T17:52:02.659Z,368.85
2023-04-09T17:53:08.137Z,300.88
2023-04-09T17:54:10.619Z,352.52
2023-04-09T17:55:18.207Z,373.15
2023-04-09T17:56:26.467Z,336.05
2023-04-09T17:57:32.562Z,347.38
2023-04-09T17:58:37.734Z,393.10
2023-04-09T17:59:43.639Z,395.27
2023-04-09T18:00:45.983Z,349.85
2023-04-09T18:01:51.616Z,302.42
2023-04-09T18:02:57.817Z,284.52
2023-04-09T18:04:04.585Z,371.63
2023-04-09T18:05:13.417Z,240.98
2023-04-09T18:06:18.931Z,258.48
2023-04-09T18:07:25.359Z,421.40
2023-04-09T18:08:29.232Z,365.27
2023-04-09T18:09:34.983Z,379.90
2023-04-09T18:10:42.882Z,428.75
2023-04-09T18:11:46.149Z,381.58
2023-04-09T18:12:51.586Z,377.90
2023-04-09T18:14:00.162Z,410.83
2023-04-09T18:15:02.341Z,322.65
2023-04-09T18:16:11.922Z,299.80
2023-04-09T18:17:17.582Z,364.30
2023-04-09T18:18:21.116Z,351.35
2023-04-09T18:19:26.396Z,354.02
2023-04-09T18:20:36.790Z,329.35
2023-04-09T18:21:39.107Z,469.30
2023-04-09T18:22:44.283Z,465.02
2023-04-09T18:23:46.767Z,444.83
2023-04-09T18:24:52.328Z,427.42
2023-04-09T18:25:55.100Z,444.80
2023-04-09T18:27:07.009Z,408.77
2023-04-09T18:28:09.632Z,290.13
2023-04-09T18:29:14.817Z,340.13
2023-04-09T18:30:17.172Z,346.50
2023-04-09T18:31:22.493Z,385.83
2023-04-09T18:32:26.152Z,341.23
2023-04-09T18:33:33.539Z,343.75
2023-04-09T18:34:38.473Z,347.55
2023-04-09T18:35:46.552Z,371.10
2023-04-09T18:36:51.433Z,260.23
2023-04-09T18:37:56.412Z,303.55
2023-04-09T18:38:58.907Z,311.75
2023-04-09T18:40:09.116Z,264.38
2023-04-09T18:41:16.876Z,366.92
2023-04-09T18:42:22.076Z,371.42
2023-04-09T18:43:26.543Z,285.65
2023-04-09T18:44:34.012Z,376.05
2023-04-09T18:45:39.734Z,280.17
2023-04-09T18:46:44.651Z,383.63
2023-04-09T18:47:46.903Z,408.92
2023-04-09T18:48:52.123Z,301.42
2023-04-09T18:49:54.523Z,443.92
2023-04-09T18:51:05.424Z,317.88
2023-04-09T18:52:10.962Z,310.48
2023-04-09T18:53:13.255Z,321.48
2023-04-09T18:54:18.789Z,360.30
2023-04-09T18:55:21.101Z,359.30
2023-04-09T18:56:26.408Z,344.65
2023-04-09T18:57:28.620Z,388.88
2023-04-09T18:58:36.275Z,472.30
2023-04-09T18:59:40.324Z,418.17
2023-04-09T19:00:50.881Z,435.65
2023-04-09T19:01:53.489Z,357.90
2023-04-09T19:02:58.458Z,371.65
2023-04-09T19:04:05.984Z,384.02
2023-04-09T19:05:14.950Z,293.42